Time;durP1;ratioP1;P1;durP2;ratioP2;P2;SDS_P1;SDS_P2;PMS_P1;PMS_P2;Temp;Humidity;BMP_temperature;BMP_pressure;BME280_temperature;BME280_humidity;BME280_pressure;Samples;Min_cycle;Max_cycle;Signal;HPM_P1;HPM_P2
2021/04/02 00:00:31;;;;;;;27.85;25.45;;;;;;;2.31;100.00;100920.94;5028461;23;20518;-87
2021/04/02 00:02:56;;;;;;;25.15;23.02;;;;;;;2.33;100.00;100913.72;5019858;28;20415;-86
2021/04/02 00:05:22;;;;;;;27.20;24.95;;;;;;;2.33;100.00;100922.44;5005590;28;20034;-87
2021/04/02 00:07:48;;;;;;;26.08;23.98;;;;;;;2.18;100.00;100910.78;5003753;28;20026;-86
2021/04/02 00:10:17;;;;;;;26.42;24.13;;;;;;;2.10;100.00;100915.94;5010457;28;20044;-86
2021/04/02 00:12:43;;;;;;;27.38;25.00;;;;;;;2.28;100.00;100908.94;5045307;28;20029;-86
2021/04/02 00:15:19;;;;;;;28.38;25.85;;;;;;;2.11;100.00;100913.16;5029429;28;20029;-87
2021/04/02 00:17:45;;;;;;;27.00;24.33;;;;;;;2.23;100.00;100924.28;5021967;28;20065;-87
2021/04/02 00:20:14;;;;;;;28.27;26.02;;;;;;;2.26;100.00;100910.88;5025705;28;20057;-87
2021/04/02 00:22:40;;;;;;;28.95;26.05;;;;;;;2.26;100.00;100910.88;5020182;28;20112;-86
2021/04/02 00:25:05;;;;;;;27.63;24.85;;;;;;;2.18;100.00;100914.25;5029087;28;20541;-86
2021/04/02 00:27:31;;;;;;;27.88;25.50;;;;;;;1.92;100.00;100906.22;5019764;28;20021;-87
2021/04/02 00:29:56;;;;;;;27.83;25.52;;;;;;;1.88;100.00;100904.06;5030231;28;20033;-87
2021/04/02 00:32:22;;;;;;;27.38;24.70;;;;;;;1.92;100.00;100906.22;5021753;28;20039;-87
2021/04/02 00:34:47;;;;;;;25.08;23.08;;;;;;;1.76;100.00;100896.38;5020308;28;20030;-86
2021/04/02 00:37:13;;;;;;;24.15;22.15;;;;;;;1.05;100.00;100903.84;5034027;28;20475;-87
2021/04/02 00:39:39;;;;;;;23.65;21.42;;;;;;;1.37;100.00;100906.16;5017934;28;20034;-87
2021/04/02 00:42:05;;;;;;;23.73;21.70;;;;;;;1.48;100.00;100905.97;5023746;28;20033;-87
2021/04/02 00:44:30;;;;;;;24.80;22.30;;;;;;;1.65;100.00;100901.78;5024151;28;20055;-88
2021/04/02 00:46:56;;;;;;;28.45;24.48;;;;;;;1.46;100.00;100886.16;5022049;28;20057;-87
2021/04/02 00:49:21;;;;;;;24.45;22.02;;;;;;;1.34;100.00;100888.09;5020536;28;20129;-87
2021/04/02 00:51:47;;;;;;;23.60;20.73;;;;;;;1.39;100.00;100888.50;5023023;28;20522;-87
2021/04/02 00:54:12;;;;;;;24.63;22.23;;;;;;;1.28;100.00;100888.69;5022892;28;20513;-87
2021/04/02 00:56:38;;;;;;;25.17;22.58;;;;;;;1.16;100.00;100871.50;5024801;28;20042;-87
2021/04/02 00:59:05;;;;;;;24.20;21.75;;;;;;;1.22;100.00;100878.78;5036479;28;20025;-86
2021/04/02 01:01:30;;;;;;;23.67;21.38;;;;;;;1.30;100.00;100882.34;5023578;28;20046;-87
2021/04/02 01:03:56;;;;;;;25.40;22.70;;;;;;;1.04;100.00;100871.63;5023073;28;20525;-87
2021/04/02 01:06:26;;;;;;;24.77;22.20;;;;;;;0.98;100.00;100871.38;5022240;28;20033;-87
2021/04/02 01:08:52;;;;;;;25.38;22.85;;;;;;;0.82;100.00;100871.94;5023863;28;20026;-87
2021/04/02 01:11:20;;;;;;;24.63;22.10;;;;;;;0.87;100.00;100867.94;5029728;28;20036;-87
2021/04/02 01:13:52;;;;;;;25.23;22.77;;;;;;;0.87;100.00;100867.09;5045763;28;20033;-87
2021/04/02 01:16:24;;;;;;;24.50;22.20;;;;;;;1.04;100.00;100862.97;5027907;28;20025;-87
2021/04/02 01:19:08;;;;;;;26.73;23.92;;;;;;;1.08;100.00;100861.72;5026272;28;20029;-88
2021/04/02 01:21:52;;;;;;;24.42;21.95;;;;;;;0.91;100.00;100851.00;5030451;28;20120;-87
2021/04/02 01:24:23;;;;;;;25.05;22.55;;;;;;;1.06;100.00;100851.41;5022736;28;20119;-87
2021/04/02 01:26:57;;;;;;;26.42;23.77;;;;;;;1.05;100.00;100851.53;5038983;28;20033;-87
2021/04/02 01:29:33;;;;;;;25.83;22.63;;;;;;;1.05;100.00;100844.50;5024845;28;20145;-86
2021/04/02 01:32:01;;;;;;;24.75;22.05;;;;;;;1.08;100.00;100831.13;5024579;28;20034;-87
2021/04/02 01:34:33;;;;;;;26.25;23.45;;;;;;;1.39;100.00;100833.53;5040969;28;20112;-87
2021/04/02 01:37:09;;;;;;;26.52;23.73;;;;;;;1.37;100.00;100822.41;5041027;28;20055;-87
2021/04/02 01:39:39;;;;;;;27.65;25.00;;;;;;;1.50;100.00;100815.03;5019913;28;20057;-86
2021/04/02 01:42:09;;;;;;;26.10;23.65;;;;;;;1.59;100.00;100819.41;5024838;28;20056;-87
2021/04/02 01:44:37;;;;;;;26.02;23.38;;;;;;;2.01;100.00;100824.13;5027387;28;20054;-87
2021/04/02 01:47:05;;;;;;;25.88;23.67;;;;;;;2.00;100.00;100801.53;5024510;28;20030;-86
2021/04/02 01:49:32;;;;;;;27.17;24.80;;;;;;;2.08;100.00;100800.78;5020945;28;20100;-87
2021/04/02 01:51:58;;;;;;;26.95;24.65;;;;;;;2.18;100.00;100796.31;5020261;28;20521;-87
2021/04/02 01:54:24;;;;;;;27.00;24.42;;;;;;;2.20;100.00;100790.91;5021464;28;20030;-87
2021/04/02 01:56:53;;;;;;;27.05;24.88;;;;;;;2.23;100.00;100783.56;5024765;28;20053;-87
2021/04/02 01:59:21;;;;;;;28.20;25.83;;;;;;;2.31;100.00;100776.78;5025932;28;20022;-88
2021/04/02 02:01:48;;;;;;;27.30;24.95;;;;;;;2.25;100.00;100781.63;5022766;28;20432;-87
2021/04/02 02:04:16;;;;;;;29.35;26.60;;;;;;;2.02;100.00;100775.19;5023787;28;20041;-87
2021/04/02 02:06:43;;;;;;;27.60;25.08;;;;;;;2.05;100.00;100772.25;5019041;28;20042;-87
2021/04/02 02:09:15;;;;;;;26.27;24.17;;;;;;;2.28;100.00;100773.47;5017116;28;20079;-87
2021/04/02 02:11:43;;;;;;;28.52;26.23;;;;;;;2.37;100.00;100768.31;5056856;23;20556;-72
2021/04/02 02:14:13;;;;;;;26.48;24.58;;;;;;;2.40;100.00;100762.75;5035863;28;20037;-72
2021/04/02 02:16:42;;;;;;;26.30;24.20;;;;;;;2.37;100.00;100763.88;5030923;28;20373;-72
2021/04/02 02:19:12;;;;;;;27.98;25.70;;;;;;;2.32;100.00;100763.50;5036747;28;20057;-72
2021/04/02 02:21:50;;;;;;;26.45;24.35;;;;;;;2.22;100.00;100754.91;5035788;28;20038;-73
2021/04/02 02:24:16;;;;;;;28.13;25.60;;;;;;;2.24;100.00;100752.94;5034407;28;20448;-72
2021/04/02 02:26:43;;;;;;;27.15;24.80;;;;;;;2.23;100.00;100746.88;5034748;28;20030;-72
2021/04/02 02:29:10;;;;;;;26.92;24.52;;;;;;;1.92;100.00;100745.63;5034833;28;20100;-72
2021/04/02 02:31:36;;;;;;;28.00;25.63;;;;;;;1.92;100.00;100737.75;5030729;28;20029;-72
2021/04/02 02:34:03;;;;;;;25.73;23.58;;;;;;;2.09;100.00;100743.97;5034081;28;20052;-72
2021/04/02 02:36:30;;;;;;;26.40;24.38;;;;;;;2.34;100.00;100735.34;5042541;28;20108;-72
2021/04/02 02:38:55;;;;;;;27.77;25.48;;;;;;;2.36;100.00;100737.81;5048435;28;20370;-72
2021/04/02 02:41:21;;;;;;;28.15;25.85;;;;;;;2.49;100.00;100739.06;5040416;28;20036;-72
2021/04/02 02:43:47;;;;;;;27.92;25.52;;;;;;;2.34;100.00;100726.66;5042719;28;20087;-72
2021/04/02 02:46:13;;;;;;;27.60;25.17;;;;;;;2.58;100.00;100729.47;5033868;28;20393;-72
2021/04/02 02:48:45;;;;;;;28.15;26.05;;;;;;;2.77;100.00;100727.63;5035883;28;20096;-72
2021/04/02 02:51:11;;;;;;;28.95;26.60;;;;;;;2.75;100.00;100723.34;5032992;28;20047;-72
2021/04/02 02:53:40;;;;;;;26.85;24.65;;;;;;;2.60;100.00;100716.19;5032125;28;20038;-72
2021/04/02 02:56:06;;;;;;;29.33;27.13;;;;;;;2.67;100.00;100718.06;5035091;28;20124;-72
2021/04/02 02:58:32;;;;;;;31.33;29.05;;;;;;;2.63;100.00;100715.88;5033911;28;20032;-72
2021/04/02 03:01:00;;;;;;;31.80;29.45;;;;;;;2.70;100.00;100720.38;5032121;28;20069;-72
2021/04/02 03:03:26;;;;;;;33.63;31.33;;;;;;;2.69;100.00;100717.88;5008877;28;20102;-72
2021/04/02 03:05:55;;;;;;;29.27;26.98;;;;;;;2.56;100.00;100713.06;5027116;28;20096;-72
2021/04/02 03:08:24;;;;;;;32.13;29.77;;;;;;;2.75;100.00;100715.50;5028597;28;20026;-72
2021/04/02 03:10:50;;;;;;;33.00;30.50;;;;;;;2.88;100.00;100701.94;5033288;28;20107;-72
2021/04/02 03:13:22;;;;;;;31.90;29.50;;;;;;;2.85;100.00;100702.25;5046518;28;20033;-72
2021/04/02 03:15:50;;;;;;;29.67;27.15;;;;;;;2.75;100.00;100710.25;5030765;28;20048;-72
2021/04/02 03:18:18;;;;;;;28.48;26.10;;;;;;;2.73;100.00;100703.50;5027821;28;20084;-72
2021/04/02 03:20:45;;;;;;;30.70;27.83;;;;;;;2.99;100.00;100708.72;5028988;28;20037;-72
2021/04/02 03:23:14;;;;;;;30.05;27.27;;;;;;;2.85;100.00;100691.75;5029014;28;20386;-72
2021/04/02 03:25:41;;;;;;;45.70;40.80;;;;;;;3.08;100.00;100699.88;5025141;28;20033;-72
2021/04/02 03:28:08;;;;;;;35.22;31.92;;;;;;;3.00;100.00;100697.25;5029497;28;20035;-72
2021/04/02 03:30:33;;;;;;;31.85;29.23;;;;;;;3.06;100.00;100695.81;5032246;28;20044;-72
2021/04/02 03:33:14;;;;;;;29.65;27.30;;;;;;;3.00;100.00;100694.63;5031204;28;20029;-72
2021/04/02 03:35:40;;;;;;;29.42;27.13;;;;;;;3.08;100.00;100699.88;5030758;28;20533;-72
2021/04/02 03:38:08;;;;;;;30.98;28.58;;;;;;;3.08;100.00;100697.25;5023765;28;20033;-72
2021/04/02 03:40:35;;;;;;;31.73;29.23;;;;;;;3.18;100.00;100690.09;5025263;28;20060;-71
2021/04/02 03:43:02;;;;;;;32.30;29.60;;;;;;;3.15;100.00;100703.56;5037115;28;20179;-72
2021/04/02 03:45:30;;;;;;;28.98;26.52;;;;;;;2.91;100.00;100706.88;5032472;28;20029;-72
2021/04/02 03:47:59;;;;;;;30.00;27.40;;;;;;;2.75;100.00;100699.75;5024101;28;20101;-72
2021/04/02 03:50:30;;;;;;;28.88;26.48;;;;;;;2.74;100.00;100697.25;5023868;28;20026;-72
2021/04/02 03:53:06;;;;;;;28.05;25.38;;;;;;;2.05;100.00;100701.53;5019612;28;20128;-72
2021/04/02 03:55:32;;;;;;;29.23;26.55;;;;;;;2.36;100.00;100698.47;5031641;28;20256;-72
2021/04/02 03:58:01;;;;;;;27.73;25.33;;;;;;;2.63;100.00;100697.53;5048652;28;20060;-72
2021/04/02 04:01:00;;;;;;;28.10;25.70;;;;;;;2.62;100.00;100701.94;5032118;28;20061;-72
2021/04/02 04:03:26;;;;;;;28.00;25.80;;;;;;;2.42;100.00;100703.97;5025071;28;20083;-72
2021/04/02 04:05:57;;;;;;;30.40;27.33;;;;;;;2.53;100.00;100703.69;5030453;28;20033;-72
2021/04/02 04:08:24;;;;;;;30.15;27.23;;;;;;;2.23;100.00;100698.88;5022720;28;20462;-72
2021/04/02 04:10:51;;;;;;;26.00;23.40;;;;;;;1.62;100.00;100700.47;5028746;28;20079;-72
2021/04/02 04:13:19;;;;;;;26.67;24.17;;;;;;;1.56;100.00;100704.50;5041019;28;20032;-71
2021/04/02 04:15:45;;;;;;;26.55;23.85;;;;;;;1.94;100.00;100702.59;5026067;28;20033;-72
2021/04/02 04:18:13;;;;;;;29.05;26.45;;;;;;;2.20;100.00;100696.56;5046621;28;20021;-72
2021/04/02 04:20:41;;;;;;;27.65;25.05;;;;;;;1.99;100.00;100696.88;5028354;28;20029;-72
2021/04/02 04:23:08;;;;;;;29.13;25.90;;;;;;;2.34;100.00;100701.28;5023753;28;20102;-72
2021/04/02 04:25:35;;;;;;;29.85;26.90;;;;;;;2.44;100.00;100702.00;5021901;28;20025;-72
2021/04/02 04:28:02;;;;;;;29.27;26.60;;;;;;;2.52;100.00;100696.00;5040840;28;20026;-72
2021/04/02 04:30:29;;;;;;;30.95;28.05;;;;;;;2.70;100.00;100703.81;5034588;28;20091;-72
2021/04/02 04:32:57;;;;;;;30.88;27.92;;;;;;;2.90;100.00;100699.97;5030420;28;20029;-72
2021/04/02 04:35:25;;;;;;;29.88;27.23;;;;;;;2.77;100.00;100696.97;5041692;28;20036;-72
2021/04/02 04:37:51;;;;;;;29.45;26.42;;;;;;;2.66;100.00;100694.59;5029170;28;20033;-72
2021/04/02 04:40:22;;;;;;;34.17;31.13;;;;;;;2.47;100.00;100693.81;5039343;28;20033;-72
2021/04/02 04:42:48;;;;;;;51.35;46.25;;;;;;;2.67;100.00;100689.19;5026015;28;20569;-72
2021/04/02 04:45:19;;;;;;;58.85;52.55;;;;;;;2.85;100.00;100691.75;4329254;28;10000731;-72
2021/04/02 04:47:45;;;;;;;51.83;46.58;;;;;;;2.88;100.00;100696.69;5026112;28;20022;-72
2021/04/02 04:50:11;;;;;;;58.35;52.42;;;;;;;2.82;100.00;100683.38;5032880;28;20365;-72
2021/04/02 04:52:46;;;;;;;65.60;58.55;;;;;;;3.04;100.00;100679.38;5031939;28;20033;-72
2021/04/02 04:55:14;;;;;;;105.97;79.63;;;;;;;3.07;100.00;100674.63;5031678;28;20122;-72
2021/04/02 04:57:42;;;;;;;72.63;61.63;;;;;;;3.18;100.00;100673.53;5024320;28;20038;-72
2021/04/02 05:00:09;;;;;;;71.13;62.78;;;;;;;3.12;100.00;100685.50;5023467;28;20041;-72
2021/04/02 05:02:38;;;;;;;60.22;54.17;;;;;;;3.14;100.00;100677.44;5029878;28;20451;-72
2021/04/02 05:05:04;;;;;;;59.05;52.78;;;;;;;3.18;100.00;100669.13;5030760;28;20112;-72
2021/04/02 05:07:32;;;;;;;62.25;51.55;;;;;;;3.27;100.00;100667.34;5031079;28;20317;-72
2021/04/02 05:09:59;;;;;;;58.50;52.42;;;;;;;3.39;100.00;100657.38;5040592;28;20101;-72
2021/04/02 05:12:26;;;;;;;58.08;51.75;;;;;;;3.52;100.00;100660.34;5032164;28;20140;-72
2021/04/02 05:14:52;;;;;;;51.45;46.53;;;;;;;3.60;100.00;100656.88;5030569;28;20342;-72
2021/04/02 05:17:19;;;;;;;58.20;52.13;;;;;;;3.70;100.00;100659.38;5029582;28;20048;-72
2021/04/02 05:19:45;;;;;;;59.33;53.20;;;;;;;3.66;100.00;100662.34;5029040;28;20040;-72
2021/04/02 05:22:11;;;;;;;54.70;48.88;;;;;;;3.83;100.00;100663.16;5022799;28;20040;-72
2021/04/02 05:24:37;;;;;;;53.97;48.08;;;;;;;3.68;100.00;100664.78;5026541;28;20033;-72
2021/04/02 05:27:06;;;;;;;55.95;49.63;;;;;;;3.97;100.00;100664.34;5019652;28;20757;-72
2021/04/02 05:29:32;;;;;;;53.70;48.20;;;;;;;4.04;100.00;100659.25;5022103;28;20021;-72
2021/04/02 05:31:58;;;;;;;54.22;48.40;;;;;;;3.97;100.00;100656.44;5044828;28;20447;-71
2021/04/02 05:34:24;;;;;;;56.08;50.00;;;;;;;4.15;100.00;100652.84;5031071;28;20465;-72
2021/04/02 05:36:49;;;;;;;53.83;48.08;;;;;;;4.26;100.00;100650.66;5019773;28;20029;-72
2021/04/02 05:39:14;;;;;;;57.88;51.38;;;;;;;4.29;100.00;100650.34;5022930;28;20045;-72
2021/04/02 05:42:03;;;;;;;82.43;56.42;;;;;;;4.46;100.00;100638.00;5026949;28;20037;-72
2021/04/02 05:44:31;;;;;;;90.45;63.78;;;;;;;4.66;100.00;100635.81;4982554;28;20092;-71
2021/04/02 05:47:03;;;;;;;64.72;52.40;;;;;;;4.87;100.00;100629.16;5025050;28;20033;-72
2021/04/02 05:49:30;;;;;;;55.75;49.97;;;;;;;5.01;100.00;100634.50;5023995;28;20029;-72
2021/04/02 05:51:59;;;;;;;56.92;50.20;;;;;;;5.17;100.00;100635.44;5020283;28;20080;-72
2021/04/02 05:54:30;;;;;;;55.55;49.85;;;;;;;5.40;100.00;100632.84;5024661;28;20140;-72
2021/04/02 05:56:57;;;;;;;56.72;50.85;;;;;;;5.50;100.00;100628.16;5025629;28;20029;-72
2021/04/02 05:59:24;;;;;;;58.17;51.45;;;;;;;5.73;100.00;100621.09;5024514;28;20392;-72
2021/04/02 06:01:50;;;;;;;57.90;51.80;;;;;;;5.90;100.00;100626.22;5026455;28;20036;-72
2021/04/02 06:04:17;;;;;;;55.88;50.10;;;;;;;6.09;100.00;100627.59;5019798;28;20211;-71
2021/04/02 06:06:43;;;;;;;55.33;50.00;;;;;;;6.15;100.00;100630.31;5023821;28;20148;-72
2021/04/02 06:09:08;;;;;;;56.15;50.13;;;;;;;6.42;100.00;100628.09;5024366;28;20124;-71
2021/04/02 06:11:36;;;;;;;58.17;52.30;;;;;;;6.41;100.00;100623.81;5032448;28;20055;-72
2021/04/02 06:14:01;;;;;;;55.92;50.72;;;;;;;6.46;100.00;100625.91;5027014;28;20731;-72
2021/04/02 06:16:27;;;;;;;56.47;51.17;;;;;;;6.60;100.00;100625.91;5030436;28;20104;-72
2021/04/02 06:18:57;;;;;;;54.08;48.67;;;;;;;6.56;100.00;100627.25;5032148;28;20124;-71
2021/04/02 06:21:26;;;;;;;55.17;49.78;;;;;;;6.70;100.00;100624.81;5027483;28;20037;-72
2021/04/02 06:23:52;;;;;;;53.70;48.42;;;;;;;6.89;100.00;100635.63;5025402;28;20026;-71
2021/04/02 06:26:18;;;;;;;55.63;49.95;;;;;;;7.15;100.00;100629.06;5025448;28;20066;-72
2021/04/02 06:28:43;;;;;;;53.53;48.10;;;;;;;7.17;100.00;100624.41;5028467;28;20450;-72
2021/04/02 06:31:17;;;;;;;55.15;49.72;;;;;;;7.25;100.00;100624.28;5027170;28;20045;-71
2021/04/02 06:33:44;;;;;;;58.92;52.50;;;;;;;7.29;100.00;100614.16;5028853;28;20045;-72
2021/04/02 06:36:16;;;;;;;59.53;53.05;;;;;;;7.62;100.00;100603.91;5034073;28;20083;-72
2021/04/02 06:38:46;;;;;;;60.63;54.28;;;;;;;7.97;100.00;100606.69;5031507;28;20454;-72
2021/04/02 06:41:13;;;;;;;53.50;48.05;;;;;;;8.03;100.00;100603.25;5027941;28;20067;-72
2021/04/02 06:43:48;;;;;;;55.20;49.70;;;;;;;8.28;100.00;100606.28;5033122;28;20033;-72
2021/04/02 06:46:17;;;;;;;57.25;51.90;;;;;;;8.63;100.00;100599.22;5026672;28;20164;-72
2021/04/02 06:48:43;;;;;;;59.92;54.17;;;;;;;8.79;100.00;100591.94;5026523;28;20029;-72
2021/04/02 06:51:17;;;;;;;54.35;49.45;;;;;;;8.96;100.00;100601.19;5029127;28;20030;-72
2021/04/02 06:53:49;;;;;;;53.08;48.17;;;;;;;9.09;100.00;100590.63;5030227;28;20048;-72
2021/04/02 06:56:16;;;;;;;52.97;47.67;;;;;;;9.37;100.00;100598.44;5028951;28;20063;-71
2021/04/02 06:58:44;;;;;;;54.65;49.38;;;;;;;9.77;100.00;100597.69;5029100;28;20044;-72
2021/04/02 07:01:12;;;;;;;54.75;49.42;;;;;;;9.93;100.00;100594.66;5025044;28;20045;-71
2021/04/02 07:03:38;;;;;;;54.75;49.33;;;;;;;10.18;100.00;100605.44;5028545;28;20041;-72
2021/04/02 07:06:05;;;;;;;54.00;48.60;;;;;;;10.60;100.00;100608.66;5030885;28;20168;-72
2021/04/02 07:08:33;;;;;;;58.88;52.65;;;;;;;10.71;100.00;100609.84;5018617;28;20033;-72
2021/04/02 07:10:59;;;;;;;56.95;51.00;;;;;;;10.82;100.00;100609.22;5014999;28;20110;-72
2021/04/02 07:13:26;;;;;;;56.40;51.15;;;;;;;10.87;100.00;100605.94;5029137;28;20037;-72
2021/04/02 07:16:11;;;;;;;55.55;50.20;;;;;;;11.12;100.00;100606.03;5023509;28;20033;-72
2021/04/02 07:18:38;;;;;;;61.40;55.08;;;;;;;11.52;100.00;100600.47;5025732;28;20123;-71
2021/04/02 07:21:05;;;;;;;55.90;50.65;;;;;;;11.57;100.00;100601.47;5021831;28;20122;-72
2021/04/02 07:23:31;;;;;;;57.42;51.92;;;;;;;11.91;100.00;100596.75;5024415;28;20120;-71
2021/04/02 07:25:57;;;;;;;57.60;52.17;;;;;;;11.99;100.00;100593.00;5021072;28;20033;-72
2021/04/02 07:28:25;;;;;;;57.72;51.67;;;;;;;12.35;100.00;100593.06;5026085;28;20861;-72
2021/04/02 07:30:51;;;;;;;59.53;53.88;;;;;;;12.66;100.00;100585.16;5038065;28;20118;-72
2021/04/02 07:33:19;;;;;;;57.70;51.95;;;;;;;13.10;100.00;100577.84;5057186;28;20026;-72
2021/04/02 07:35:54;;;;;;;56.42;51.00;;;;;;;13.26;100.00;100591.41;5020506;28;20037;-71
2021/04/02 07:38:24;;;;;;;57.28;51.75;;;;;;;13.34;100.00;100582.25;5016766;28;20041;-72
2021/04/02 07:40:50;;;;;;;57.85;51.90;;;;;;;13.78;100.00;100582.81;5020878;28;20024;-72
2021/04/02 07:43:16;;;;;;;58.85;53.30;;;;;;;13.95;100.00;100572.28;5026876;28;20032;-72
2021/04/02 07:45:41;;;;;;;58.28;52.97;;;;;;;14.24;100.00;100564.38;5035553;28;20087;-72
2021/04/02 07:48:17;;;;;;;58.92;53.47;;;;;;;14.47;100.00;100568.88;5025626;28;20048;-72
2021/04/02 07:50:52;;;;;;;56.35;50.40;;;;;;;14.62;100.00;100555.88;5023540;28;20124;-72
2021/04/02 07:53:24;;;;;;;57.25;51.78;;;;;;;14.69;100.00;100551.19;5027698;28;20134;-72
2021/04/02 07:56:19;;;;;;;58.53;53.00;;;;;;;14.94;100.00;100553.53;5030116;28;20029;-72
2021/04/02 07:58:50;;;;;;;58.00;52.42;;;;;;;15.45;96.53;100551.78;5023383;28;20075;-72
2021/04/02 08:01:18;;;;;;;60.67;55.15;;;;;;;15.00;100.00;100552.59;5035411;28;20037;-72
2021/04/02 08:03:45;;;;;;;57.28;51.95;;;;;;;15.67;89.82;100537.69;5023529;28;20125;-72
2021/04/02 08:06:29;;;;;;;57.63;52.30;;;;;;;15.96;84.11;100530.38;5023056;28;20043;-72
2021/04/02 08:08:55;;;;;;;57.60;52.30;;;;;;;16.35;78.49;100527.72;5024583;28;20029;-72
2021/04/02 08:11:28;;;;;;;58.85;53.65;;;;;;;15.70;80.21;100532.69;5041802;28;20045;-72
2021/04/02 08:14:08;;;;;;;58.60;53.35;;;;;;;15.99;70.12;100540.63;5027537;28;20033;-72
2021/04/02 08:16:48;;;;;;;58.58;53.15;;;;;;;16.58;65.46;100529.31;5025962;28;20033;-72
2021/04/02 08:19:17;;;;;;;61.65;56.05;;;;;;;16.40;63.10;100519.72;5014920;28;20374;-72
2021/04/02 08:21:55;;;;;;;58.88;53.53;;;;;;;17.20;57.63;100515.53;5029439;28;20048;-72
2021/04/02 08:24:23;;;;;;;60.58;55.13;;;;;;;16.75;62.09;100513.97;5030183;28;20037;-72
2021/04/02 08:26:49;;;;;;;61.35;56.03;;;;;;;17.40;49.02;100514.91;5022913;28;20036;-72
2021/04/02 08:29:16;;;;;;;63.33;57.70;;;;;;;17.17;65.25;100521.41;5023060;28;20017;-72
2021/04/02 08:31:48;;;;;;;62.45;56.33;;;;;;;16.74;73.03;100504.31;5015300;28;20040;-72
2021/04/02 08:34:15;;;;;;;60.47;54.87;;;;;;;17.50;54.30;100498.88;5014749;28;20025;-72
2021/04/02 08:36:41;;;;;;;61.55;56.03;;;;;;;17.79;56.81;100510.13;5024168;28;20040;-72
2021/04/02 08:39:07;;;;;;;61.78;56.17;;;;;;;17.71;55.25;100510.56;5024639;28;20029;-73
2021/04/02 08:41:33;;;;;;;63.40;57.70;;;;;;;17.36;58.63;100503.84;5028172;28;20465;-72
2021/04/02 08:43:59;;;;;;;64.60;58.97;;;;;;;17.48;69.35;100508.25;5020119;28;20037;-72
2021/04/02 08:46:47;;;;;;;63.35;57.85;;;;;;;18.47;52.65;100510.19;5029566;28;20037;-72
2021/04/02 08:49:14;;;;;;;64.18;58.72;;;;;;;15.48;90.04;100508.47;5028296;28;20021;-72
2021/04/02 08:51:47;;;;;;;62.75;57.15;;;;;;;17.31;67.95;100500.34;5027096;28;20030;-72
2021/04/02 08:54:20;;;;;;;60.20;54.80;;;;;;;17.78;56.52;100499.63;5027061;28;20037;-72
2021/04/02 08:56:46;;;;;;;;;;;;;;;18.30;55.53;100496.94;5031005;28;20038;-72
2021/04/02 08:59:12;;;;;;;62.90;57.83;;;;;;;17.99;54.58;100487.94;5039859;28;19917;-72
2021/04/02 09:01:41;;;;;;;35.33;33.10;;;;;;;18.13;60.66;100488.28;5043141;28;20417;-72
2021/04/02 09:04:08;;;;;;;33.85;31.90;;;;;;;18.96;52.73;100484.78;5041325;28;20115;-72
2021/04/02 09:06:34;;;;;;;35.03;32.75;;;;;;;18.23;68.46;100482.94;5039895;28;20382;-72
2021/04/02 09:09:01;;;;;;;36.53;34.35;;;;;;;18.41;54.19;100481.66;5031121;28;20075;-72
2021/04/02 09:11:27;;;;;;;38.30;36.10;;;;;;;17.78;62.25;100473.56;5029627;28;20402;-73
2021/04/02 09:13:52;;;;;;;35.10;33.10;;;;;;;18.91;54.26;100474.00;5031337;28;20055;-72
2021/04/02 09:16:20;;;;;;;37.15;34.97;;;;;;;18.57;55.11;100466.38;5040043;28;20466;-72
2021/04/02 09:18:56;;;;;;;35.65;33.13;;;;;;;19.00;56.07;100456.25;5041071;28;20049;-73
2021/04/02 09:21:24;;;;;;;37.45;35.15;;;;;;;19.19;50.02;100435.81;5027651;28;20031;-72
2021/04/02 09:23:52;;;;;;;37.80;35.70;;;;;;;18.79;52.80;100450.06;5017322;28;20061;-72
2021/04/02 09:26:18;;;;;;;37.33;35.22;;;;;;;18.20;63.62;100451.22;5039650;28;20527;-72
2021/04/02 09:28:44;;;;;;;35.80;33.70;;;;;;;19.48;53.52;100448.72;5038386;28;20033;-72
2021/04/02 09:31:25;;;;;;;35.75;33.58;;;;;;;19.25;52.94;100442.03;5029366;28;20033;-72
2021/04/02 09:33:53;;;;;;;37.58;35.38;;;;;;;18.69;50.87;100448.13;5027746;28;20029;-72
2021/04/02 09:36:21;;;;;;;38.20;36.00;;;;;;;18.81;54.73;100444.41;5030701;28;20029;-72
2021/04/02 09:38:48;;;;;;;34.35;32.45;;;;;;;18.51;53.61;100440.56;5032432;28;20086;-72
2021/04/02 09:41:20;;;;;;;34.53;32.45;;;;;;;18.40;55.07;100433.56;5037544;28;20036;-72
2021/04/02 09:43:48;;;;;;;36.20;34.13;;;;;;;18.64;57.13;100433.84;5038556;28;20025;-72
2021/04/02 09:46:27;;;;;;;36.17;34.08;;;;;;;18.19;66.92;100438.06;5028740;28;20060;-72
2021/04/02 09:49:02;;;;;;;33.58;31.48;;;;;;;17.78;66.22;100435.97;5030684;28;20382;-72
2021/04/02 09:51:29;;;;;;;35.80;33.60;;;;;;;18.38;61.90;100433.00;5030595;28;20030;-72
2021/04/02 09:53:54;;;;;;;35.80;33.75;;;;;;;14.34;100.00;100425.66;5030476;28;20401;-72
2021/04/02 09:56:20;;;;;;;37.20;35.00;;;;;;;18.68;73.05;100426.88;5030506;28;20022;-72
2021/04/02 09:58:45;;;;;;;36.80;34.83;;;;;;;18.52;69.41;100421.47;5029119;28;20038;-72
2021/04/02 10:01:10;;;;;;;37.05;34.88;;;;;;;18.45;65.79;100422.78;5029627;28;20044;-72
2021/04/02 10:03:37;;;;;;;36.33;34.35;;;;;;;17.28;84.90;100417.66;5027068;28;20044;-72
2021/04/02 10:06:03;;;;;;;35.13;33.03;;;;;;;15.91;96.35;100412.47;5022265;28;20432;-72
2021/04/02 10:08:28;;;;;;;35.78;33.78;;;;;;;15.78;95.80;100417.13;5019535;28;20072;-72
2021/04/02 10:10:54;;;;;;;34.67;32.67;;;;;;;16.44;92.70;100419.81;5029314;28;20045;-72
2021/04/02 10:13:19;;;;;;;36.03;34.03;;;;;;;14.48;100.00;100420.88;5029902;28;20025;-72
2021/04/02 10:15:45;;;;;;;36.95;33.85;;;;;;;17.31;87.82;100414.44;5028278;28;20389;-72
2021/04/02 10:18:10;;;;;;;32.92;31.13;;;;;;;14.71;100.00;100404.75;5025859;28;20376;-75
2021/04/02 10:20:36;;;;;;;33.15;30.85;;;;;;;16.03;97.12;100405.91;5025611;28;20045;-72
2021/04/02 10:23:01;;;;;;;33.25;31.15;;;;;;;15.40;100.00;100409.06;5027422;28;20036;-72
2021/04/02 10:25:27;;;;;;;34.08;32.08;;;;;;;15.26;100.00;100414.75;5022505;28;20032;-72
2021/04/02 10:27:52;;;;;;;33.47;31.67;;;;;;;15.61;100.00;100418.19;5024129;28;20525;-72
2021/04/02 10:30:18;;;;;;;34.28;31.83;;;;;;;15.33;100.00;100406.56;5027261;28;20032;-72
2021/04/02 10:32:43;;;;;;;33.35;31.15;;;;;;;17.13;98.29;100412.97;5023688;28;20034;-72
2021/04/02 10:35:10;;;;;;;33.00;31.00;;;;;;;16.28;95.75;100401.94;5024216;28;20586;-72
2021/04/02 10:37:35;;;;;;;34.97;32.58;;;;;;;18.17;89.39;100408.72;5030252;28;20493;-72
2021/04/02 10:40:01;;;;;;;34.72;32.35;;;;;;;18.81;89.79;100396.78;5038250;28;20030;-73
2021/04/02 10:42:27;;;;;;;34.13;31.70;;;;;;;19.31;78.03;100386.28;5024904;28;20476;-73
2021/04/02 10:44:52;;;;;;;35.00;32.90;;;;;;;19.85;70.92;100385.63;5024868;28;20025;-73
2021/04/02 10:47:17;;;;;;;34.33;32.22;;;;;;;19.09;85.09;100381.19;5027585;28;20474;-72
2021/04/02 10:49:43;;;;;;;33.38;31.27;;;;;;;16.35;95.56;100385.66;5027707;28;20172;-72
2021/04/02 10:52:09;;;;;;;35.15;33.10;;;;;;;19.73;76.07;100374.34;5040953;28;20026;-72
2021/04/02 10:54:34;;;;;;;36.22;33.85;;;;;;;21.05;69.78;100376.22;5040789;28;20053;-72
2021/04/02 10:57:00;;;;;;;34.67;32.58;;;;;;;18.14;79.59;100373.53;5026268;28;20128;-72
2021/04/02 10:59:25;;;;;;;36.40;33.95;;;;;;;20.00;66.99;100371.25;5031128;28;20039;-72
2021/04/02 11:01:50;;;;;;;36.05;33.90;;;;;;;15.22;100.00;100360.13;5025500;28;20025;-72
2021/04/02 11:04:16;;;;;;;35.30;33.30;;;;;;;18.25;84.05;100362.53;5028813;28;20021;-72
2021/04/02 11:06:41;;;;;;;34.78;32.42;;;;;;;19.07;85.23;100345.66;5028988;28;20459;-72
2021/04/02 11:09:08;;;;;;;33.45;31.33;;;;;;;19.31;83.01;100344.00;5035538;28;20472;-73
2021/04/02 11:11:34;;;;;;;34.67;32.58;;;;;;;19.82;87.38;100346.56;5042858;28;20045;-72
2021/04/02 11:14:00;;;;;;;64.45;35.90;;;;;;;19.95;80.60;100345.16;5033475;28;20029;-72